Flight Track Log - Related Links

Times and Time Zones

All times are in EDT time to prevent confusion due to time zone crossing. See the N755CC flight status page for this flight to view local times or setup timezone preferences in your user account.

Time Position Orientation Groundspeed Altitude Reporting Facility
EDT Latitude Longitude Course Direction KTS MPH feet Rate Location/Type
Sat 03:43:43 PM 42.7653 -73.8089 359° North 91 105 900  Level Boston Center
Sat 03:44:13 PM 42.7778 -73.8092 359° North 88 101 1,400 818 Climbing Boston Center
Sat 03:45:11 PM 42.7989 -73.7928 30° Northeast 96 110 2,100 730 Climbing Boston Center
Sat 03:46:08 PM 42.8178 -73.7675 44° Northeast 101 116 2,800 661 Climbing Boston Center
Sat 03:47:09 PM 42.8431 -73.7428 36° Northeast 111 128 3,400 595 Climbing Boston Center
Sat 03:48:09 PM 42.8683 -73.7147 39° Northeast 116 133 4,000 298 Climbing Boston Center
Sat 03:49:10 PM 42.8939 -73.6786 46° Northeast 124 143 4,000 50 Level Boston Center
Sat 03:50:10 PM 42.9233 -73.6508 35° Northeast 136 157 4,100  Climbing Boston Center
Sat 03:51:10 PM 42.9486 -73.6117 49° Northeast 133 153 4,000 -50 Descending Boston Center
Sat 03:52:11 PM 42.9761 -73.5808 39° Northeast 131 151 4,000  Level Boston Center
Sat 03:53:05 PM 43.0014 -73.5500 42° Northeast 123 142 4,000 -198 Level Boston Center
Sat 03:54:12 PM 42.9914 -73.5044 107° East 125 144 3,600 -283 Descending Boston Center
Sat 03:55:12 PM 42.9753 -73.4644 119° Southeast 122 140 3,400 -248 Descending Boston Center
Sat 03:56:13 PM 42.9608 -73.4275 118° Southeast 112 129 3,100 -397 Descending Boston Center
Sat 03:57:13 PM 42.9444 -73.3903 121° Southeast 113 130 2,600 -347 Descending Boston Center
Sat 03:58:14 PM 42.9325 -73.3503 112° Southeast 105 121 2,400 -248 Descending Boston Center
Sat 03:59:14 PM 42.9181 -73.3189 122° Southeast 98 113 2,100 -149 Descending Boston Center
Sat 04:00:15 PM 42.9036 -73.2875 122° Southeast 94 108 2,100 99 Level Boston Center
Sat 04:01:15 PM 42.8936 -73.2561 113° Southeast 86 99 2,300 393 Climbing Boston Center
Sat 04:02:17 PM 42.9061 -73.2339 52° Northeast 102 117 2,900 677 Climbing Boston Center
Sat 04:03:19 PM 42.9142 -73.2622 291° West 84 97 3,700 600 Climbing Boston Center
Sat 04:04:17 PM 42.9267 -73.2936 299° West 92 106 4,100 197 Climbing Boston Center
Sat 04:05:21 PM 42.9428 -73.3364 297° West 119 137 4,100  Level Boston Center
Sat 04:06:20 PM 42.9572 -73.3764 296° West 118 136 4,100  Level Boston Center
Sat 04:07:21 PM 42.9714 -73.4161 296° West 116 133 4,100  Level Boston Center
Sat 04:08:27 PM 42.9814 -73.4617 287° West 116 133 4,100  Level Boston Center
Sat 04:09:34 PM 42.9978 -73.5103 295° West 120 138 4,100  Level Boston Center
Sat 04:10:34 PM 43.0078 -73.5503 289° West 120 138 4,100  Level Boston Center
Sat 04:11:37 PM 43.0114 -73.5928 277° West 118 136 4,100  Level Boston Center
Sat 04:12:35 PM 43.0258 -73.6272 300° West 122 140 4,100  Level Boston Center
Sat 04:13:35 PM 43.0344 -73.5878 73° East 145 167 4,100  Level Boston Center
Sat 04:14:39 PM 43.0078 -73.5389 127° Southeast 143 165 4,100  Level Boston Center
Sat 04:15:39 PM 42.9894 -73.4958 120° Southeast 141 162 4,100  Level Boston Center
Sat 04:16:40 PM 42.9692 -73.4503 121° Southeast 142 163 4,100 -246 Level Boston Center
Sat 04:17:41 PM 42.9506 -73.4044 119° Southeast 129 148 3,600 -645 Descending Boston Center
Sat 04:18:41 PM 42.9364 -73.3617 114° Southeast 126 145 2,800 -737 Descending Boston Center
Sat 04:19:35 PM 42.9222 -73.3247 118° Southeast 118 136 2,200 -372 Descending Boston Center
Sat 04:20:34 PM 42.9058 -73.2933 125° Southeast 96 110 2,100 -50 Descending Boston Center
Sat 04:21:35 PM 42.8956 -73.2619 114° Southeast 94 108 2,100 298 Level Boston Center
Sat 04:22:35 PM 42.9019 -73.2364 71° East 98 113 2,700 600 Climbing Boston Center

Login

Don't have an account? Register now (free) for customized features, flight alerts, and more!